Time;durP1;ratioP1;P1;durP2;ratioP2;P2;SDS_P1;SDS_P2;PMS_P1;PMS_P2;Temp;Humidity;BMP_temperature;BMP_pressure;BME280_temperature;BME280_humidity;BME280_pressure;Samples;Min_cycle;Max_cycle;Signal;HPM_P1;HPM_P2
2021/07/19 00:01:23;;;;;;;6.00;5.50;;;;;;;;;;5073737;28;24414;-56
2021/07/19 00:03:48;;;;;;;5.60;4.80;;;;;;;;;;5084720;28;24442;-57
2021/07/19 00:06:13;;;;;;;4.70;4.30;;;;;;;;;;5087361;28;24849;-57
2021/07/19 00:08:38;;;;;;;5.20;4.70;;;;;;;;;;5073146;28;24417;-56
2021/07/19 00:11:04;;;;;;;5.30;4.53;;;;;;;;;;5070262;28;24522;-56
2021/07/19 00:13:29;;;;;;;5.17;4.77;;;;;;;;;;5074562;28;24414;-56
2021/07/19 00:15:55;;;;;;;5.10;4.70;;;;;;;;;;5076733;28;24414;-56
2021/07/19 00:18:20;;;;;;;4.50;4.10;;;;;;;;;;5072162;28;25079;-57
2021/07/19 00:20:45;;;;;;;5.20;4.80;;;;;;;;;;5076262;28;24456;-54
2021/07/19 00:23:10;;;;;;;4.50;4.20;;;;;;;;;;5088539;28;24406;-56
2021/07/19 00:25:36;;;;;;;4.50;4.10;;;;;;;;;;5073259;28;24421;-56
2021/07/19 00:28:01;;;;;;;4.30;4.00;;;;;;;;;;5074030;28;24502;-56
2021/07/19 00:30:26;;;;;;;4.30;3.90;;;;;;;;;;5075993;28;25202;-56
2021/07/19 00:32:52;;;;;;;4.88;4.47;;;;;;;;;;5088036;28;24986;-56
2021/07/19 00:35:17;;;;;;;4.50;4.10;;;;;;;;;;5085091;28;24446;-55
2021/07/19 00:37:42;;;;;;;5.20;4.80;;;;;;;;;;5080078;28;24437;-56
2021/07/19 00:40:12;;;;;;;4.80;4.40;;;;;;;;;;5084636;28;24445;-56
2021/07/19 00:42:40;;;;;;;4.40;4.10;;;;;;;;;;5088541;28;24994;-56
2021/07/19 00:45:09;;;;;;;5.38;4.88;;;;;;;;;;5087956;28;24466;-56
2021/07/19 00:47:34;;;;;;;4.30;3.90;;;;;;;;;;5085877;28;24449;-56
2021/07/19 00:49:59;;;;;;;4.40;4.00;;;;;;;;;;5086354;28;24461;-56
2021/07/19 00:52:25;;;;;;;4.37;4.03;;;;;;;;;;5075594;28;24857;-56
2021/07/19 00:54:50;;;;;;;4.15;3.85;;;;;;;;;;5068605;28;24429;-56
2021/07/19 00:57:16;;;;;;;5.00;4.60;;;;;;;;;;5069349;28;24813;-56
2021/07/19 00:59:43;;;;;;;4.70;4.30;;;;;;;;;;5085077;28;24417;-56
2021/07/19 01:02:08;;;;;;;4.22;3.92;;;;;;;;;;5071364;28;24503;-56
2021/07/19 01:04:33;;;;;;;4.60;4.20;;;;;;;;;;5076490;28;24561;-57
2021/07/19 01:07:01;;;;;;;4.10;3.70;;;;;;;;;;5074500;28;24937;-56
2021/07/19 01:09:27;;;;;;;4.25;3.85;;;;;;;;;;5094575;28;24410;-56
2021/07/19 01:11:52;;;;;;;4.40;4.00;;;;;;;;;;5069508;28;24983;-57
2021/07/19 01:14:18;;;;;;;3.93;3.63;;;;;;;;;;5070574;28;24502;-56
2021/07/19 01:16:43;;;;;;;4.28;3.97;;;;;;;;;;5067962;28;24426;-56
2021/07/19 01:19:09;;;;;;;4.90;4.40;;;;;;;;;;5067051;28;24980;-56
2021/07/19 01:21:53;;;;;;;4.97;4.30;;;;;;;;;;5075437;28;24407;-56
2021/07/19 01:24:28;;;;;;;4.13;3.83;;;;;;;;;;5074930;28;24411;-57
2021/07/19 01:27:05;;;;;;;4.03;3.72;;;;;;;;;;5075813;28;24421;-56
2021/07/19 01:29:31;;;;;;;5.30;4.80;;;;;;;;;;5078875;28;24516;-56
2021/07/19 01:31:57;;;;;;;5.05;4.55;;;;;;;;;;5078659;28;24414;-56
2021/07/19 01:34:23;;;;;;;4.70;4.40;;;;;;;;;;5070867;28;24548;-56
2021/07/19 01:36:50;;;;;;;5.10;4.70;;;;;;;;;;5076647;28;24441;-56
2021/07/19 01:39:16;;;;;;;4.88;4.50;;;;;;;;;;5072828;28;24477;-56
2021/07/19 01:41:41;;;;;;;4.70;4.30;;;;;;;;;;5075567;28;24505;-55
2021/07/19 01:44:08;;;;;;;5.40;4.90;;;;;;;;;;5077887;28;25011;-55
2021/07/19 01:46:33;;;;;;;5.35;4.85;;;;;;;;;;5070464;28;24414;-55
2021/07/19 01:48:58;;;;;;;5.93;4.70;;;;;;;;;;5069302;28;24433;-56
2021/07/19 01:51:24;;;;;;;5.60;4.75;;;;;;;;;;5079099;28;25024;-55
2021/07/19 01:53:50;;;;;;;5.60;5.10;;;;;;;;;;5075491;28;24415;-56
2021/07/19 01:56:15;;;;;;;6.60;5.13;;;;;;;;;;5072390;28;24792;-56
2021/07/19 01:58:41;;;;;;;5.07;4.68;;;;;;;;;;5074676;28;24429;-56
2021/07/19 02:01:06;;;;;;;5.60;5.00;;;;;;;;;;5071234;28;24398;-55
2021/07/19 02:03:32;;;;;;;5.10;4.60;;;;;;;;;;5067745;28;24408;-55
2021/07/19 02:05:57;;;;;;;5.27;4.83;;;;;;;;;;5082531;28;24410;-55
2021/07/19 02:08:23;;;;;;;5.65;5.10;;;;;;;;;;5081945;28;24426;-55
2021/07/19 02:10:49;;;;;;;5.23;4.73;;;;;;;;;;5070026;28;24438;-56
2021/07/19 02:13:15;;;;;;;6.20;4.83;;;;;;;;;;5073882;28;24705;-55
2021/07/19 02:15:40;;;;;;;5.70;4.50;;;;;;;;;;5078806;28;25312;-56
2021/07/19 02:18:06;;;;;;;7.10;4.60;;;;;;;;;;5067958;28;24441;-55
2021/07/19 02:20:32;;;;;;;5.17;4.77;;;;;;;;;;5071765;28;24467;-55
2021/07/19 02:22:58;;;;;;;4.70;4.30;;;;;;;;;;5069353;28;25264;-55
2021/07/19 02:25:24;;;;;;;5.00;4.55;;;;;;;;;;5072369;28;24952;-55
2021/07/19 02:27:50;;;;;;;5.30;4.80;;;;;;;;;;5065843;28;24425;-56
2021/07/19 02:30:16;;;;;;;4.82;4.43;;;;;;;;;;5066194;28;24999;-55
2021/07/19 02:32:43;;;;;;;4.90;4.40;;;;;;;;;;5067088;28;24964;-56
2021/07/19 02:35:09;;;;;;;5.30;4.80;;;;;;;;;;5066135;28;24769;-55
2021/07/19 02:37:35;;;;;;;5.10;4.70;;;;;;;;;;5077654;28;24945;-55
2021/07/19 02:40:00;;;;;;;5.20;4.80;;;;;;;;;;5068009;28;24957;-55
2021/07/19 02:42:25;;;;;;;4.40;4.10;;;;;;;;;;5067503;28;24422;-56
2021/07/19 02:44:51;;;;;;;5.00;4.50;;;;;;;;;;5071256;28;24888;-56
2021/07/19 02:47:17;;;;;;;5.43;4.87;;;;;;;;;;5069617;28;24804;-55
2021/07/19 02:49:44;;;;;;;5.10;4.60;;;;;;;;;;5078502;28;24422;-55
2021/07/19 02:52:09;;;;;;;5.70;4.80;;;;;;;;;;5074285;28;24410;-55
2021/07/19 02:54:34;;;;;;;5.30;4.80;;;;;;;;;;5067779;28;24984;-55
2021/07/19 02:57:00;;;;;;;5.20;4.80;;;;;;;;;;5077907;28;24930;-55
2021/07/19 02:59:26;;;;;;;5.33;4.80;;;;;;;;;;5071148;28;24441;-55
2021/07/19 03:01:52;;;;;;;5.55;5.05;;;;;;;;;;5068371;28;24418;-55
2021/07/19 03:04:17;;;;;;;6.20;5.10;;;;;;;;;;5082285;28;24410;-55
2021/07/19 03:06:43;;;;;;;6.00;5.15;;;;;;;;;;5068962;28;24418;-55
2021/07/19 03:09:09;;;;;;;5.20;4.70;;;;;;;;;;5073274;28;24418;-55
2021/07/19 03:11:35;;;;;;;5.70;5.20;;;;;;;;;;5080811;28;24425;-55
2021/07/19 03:14:02;;;;;;;6.60;5.13;;;;;;;;;;5071911;28;24847;-56
2021/07/19 03:16:27;;;;;;;6.45;5.20;;;;;;;;;;5072045;28;24825;-54
2021/07/19 03:18:53;;;;;;;5.60;5.10;;;;;;;;;;5082411;28;24438;-54
2021/07/19 03:21:19;;;;;;;5.40;5.00;;;;;;;;;;5072183;28;24497;-54
2021/07/19 03:23:45;;;;;;;5.40;4.90;;;;;;;;;;5082248;28;24463;-54
2021/07/19 03:26:10;;;;;;;5.50;5.00;;;;;;;;;;5089799;28;24420;-56
2021/07/19 03:28:37;;;;;;;5.65;5.18;;;;;;;;;;5076011;28;24519;-54
2021/07/19 03:31:02;;;;;;;5.10;4.70;;;;;;;;;;5074204;28;24414;-54
2021/07/19 03:33:28;;;;;;;5.70;5.00;;;;;;;;;;5079137;28;24701;-54
2021/07/19 03:35:53;;;;;;;7.40;5.40;;;;;;;;;;5083031;28;24406;-54
2021/07/19 03:38:19;;;;;;;6.30;5.70;;;;;;;;;;5079580;28;24434;-54
2021/07/19 03:40:44;;;;;;;5.63;5.13;;;;;;;;;;5079233;28;24422;-54
2021/07/19 03:43:10;;;;;;;5.90;5.17;;;;;;;;;;5074637;28;24418;-54
2021/07/19 03:45:35;;;;;;;5.20;4.80;;;;;;;;;;5077881;28;24758;-54
2021/07/19 03:48:02;;;;;;;5.57;4.67;;;;;;;;;;5080291;28;24447;-55
2021/07/19 03:50:27;;;;;;;5.45;5.05;;;;;;;;;;5078096;28;24414;-55
2021/07/19 03:52:53;;;;;;;5.30;4.90;;;;;;;;;;5083780;28;24418;-60
2021/07/19 03:55:18;;;;;;;5.60;5.10;;;;;;;;;;5076569;28;24455;-55
2021/07/19 03:57:43;;;;;;;5.07;4.67;;;;;;;;;;5069321;28;24446;-55
2021/07/19 04:00:10;;;;;;;5.43;4.93;;;;;;;;;;5074270;28;24487;-55
2021/07/19 04:02:37;;;;;;;4.40;4.10;;;;;;;;;;5067509;28;25125;-55
2021/07/19 04:05:05;;;;;;;5.88;5.35;;;;;;;;;;5072415;28;24420;-55
2021/07/19 04:07:31;;;;;;;5.07;4.67;;;;;;;;;;5080546;28;24477;-55
2021/07/19 04:09:57;;;;;;;5.80;5.20;;;;;;;;;;5089677;28;24405;-54
2021/07/19 04:12:22;;;;;;;5.88;4.85;;;;;;;;;;5071078;28;24442;-54
2021/07/19 04:14:48;;;;;;;4.70;4.30;;;;;;;;;;5077123;28;24448;-54
2021/07/19 04:17:13;;;;;;;5.27;4.87;;;;;;;;;;5068982;28;25028;-55
2021/07/19 04:19:43;;;;;;;5.60;5.10;;;;;;;;;;5065939;28;24422;-55
2021/07/19 04:22:11;;;;;;;7.32;5.50;;;;;;;;;;5077836;28;24442;-55
2021/07/19 04:24:36;;;;;;;5.20;4.80;;;;;;;;;;5078132;28;24422;-55
2021/07/19 04:27:01;;;;;;;4.95;4.55;;;;;;;;;;5070364;28;24435;-56
2021/07/19 04:29:26;;;;;;;5.78;4.60;;;;;;;;;;5073456;28;25086;-55
2021/07/19 04:31:53;;;;;;;5.50;5.00;;;;;;;;;;5080477;28;24867;-56
2021/07/19 04:34:28;;;;;;;5.57;4.90;;;;;;;;;;5068883;28;24418;-55
2021/07/19 04:36:57;;;;;;;5.00;4.55;;;;;;;;;;5077802;28;24518;-54
2021/07/19 04:39:22;;;;;;;5.20;4.70;;;;;;;;;;5086131;28;24467;-54
2021/07/19 04:41:47;;;;;;;6.00;4.70;;;;;;;;;;5077686;28;24855;-54
2021/07/19 04:44:12;;;;;;;5.20;4.70;;;;;;;;;;5074829;28;24963;-54
2021/07/19 04:46:37;;;;;;;5.15;4.75;;;;;;;;;;5073415;28;24410;-54
2021/07/19 04:49:03;;;;;;;5.03;4.63;;;;;;;;;;5078340;28;24457;-56
2021/07/19 04:51:28;;;;;;;4.83;4.30;;;;;;;;;;5071872;28;25036;-55
2021/07/19 04:53:55;;;;;;;5.68;5.28;;;;;;;;;;5074505;28;24446;-55
2021/07/19 04:56:20;;;;;;;5.30;4.80;;;;;;;;;;5081345;28;24959;-56
2021/07/19 04:58:48;;;;;;;6.17;5.20;;;;;;;;;;5078035;28;24429;-54
2021/07/19 05:01:15;;;;;;;5.28;4.78;;;;;;;;;;5073401;28;24487;-54
2021/07/19 05:03:43;;;;;;;5.88;5.28;;;;;;;;;;5073565;28;24514;-54
2021/07/19 05:06:10;;;;;;;5.35;4.95;;;;;;;;;;5084030;28;24514;-60
2021/07/19 05:08:36;;;;;;;5.30;4.90;;;;;;;;;;5075152;28;24426;-55
2021/07/19 05:11:01;;;;;;;5.17;4.67;;;;;;;;;;5073828;28;24429;-56
2021/07/19 05:13:27;;;;;;;6.05;5.45;;;;;;;;;;5093979;28;24424;-56
2021/07/19 05:15:52;;;;;;;5.90;5.30;;;;;;;;;;5085756;28;24418;-54
2021/07/19 05:18:18;;;;;;;5.97;5.38;;;;;;;;;;5077428;28;24539;-55
2021/07/19 05:20:44;;;;;;;6.10;5.60;;;;;;;;;;5101521;28;24471;-55
2021/07/19 05:23:09;;;;;;;6.40;5.80;;;;;;;;;;5099366;28;24414;-55
2021/07/19 05:25:40;;;;;;;7.05;6.40;;;;;;;;;;5103058;28;24424;-55
2021/07/19 05:28:13;;;;;;;7.20;6.45;;;;;;;;;;5099819;28;24501;-54
2021/07/19 05:30:40;;;;;;;7.00;6.30;;;;;;;;;;5088203;28;24956;-54
2021/07/19 05:33:05;;;;;;;7.18;6.47;;;;;;;;;;5088075;28;24394;-54
2021/07/19 05:35:31;;;;;;;6.90;6.30;;;;;;;;;;5087814;28;24459;-54
2021/07/19 05:37:56;;;;;;;6.97;6.37;;;;;;;;;;5088255;28;24429;-54
2021/07/19 05:40:21;;;;;;;7.00;6.40;;;;;;;;;;5086210;28;24463;-54
2021/07/19 05:42:46;;;;;;;10.03;6.77;;;;;;;;;;5087042;28;24719;-55
2021/07/19 05:45:12;;;;;;;6.88;6.28;;;;;;;;;;5088630;28;24923;-55
2021/07/19 05:47:37;;;;;;;7.33;6.70;;;;;;;;;;5087927;28;24444;-54
2021/07/19 05:50:03;;;;;;;7.10;6.50;;;;;;;;;;5085800;28;24725;-55
2021/07/19 05:52:29;;;;;;;7.57;6.93;;;;;;;;;;5088183;28;24387;-55
2021/07/19 05:54:56;;;;;;;7.30;6.80;;;;;;;;;;5087905;28;24397;-55
2021/07/19 05:57:21;;;;;;;7.60;7.00;;;;;;;;;;5088065;28;24481;-55
2021/07/19 05:59:46;;;;;;;7.03;6.47;;;;;;;;;;5086163;28;24556;-55
2021/07/19 06:02:11;;;;;;;7.50;6.90;;;;;;;;;;5087647;28;24487;-55
2021/07/19 06:04:36;;;;;;;7.45;6.75;;;;;;;;;;5089495;28;24421;-55
2021/07/19 06:07:02;;;;;;;7.80;7.03;;;;;;;;;;5100731;28;24911;-55
2021/07/19 06:09:27;;;;;;;7.97;7.27;;;;;;;;;;5088145;28;24418;-54
2021/07/19 06:11:52;;;;;;;7.70;7.10;;;;;;;;;;5079850;28;24438;-54
2021/07/19 06:14:17;;;;;;;8.55;7.65;;;;;;;;;;5081446;28;24430;-55
2021/07/19 06:16:42;;;;;;;8.20;7.40;;;;;;;;;;5068326;28;24411;-54
2021/07/19 06:19:08;;;;;;;8.50;7.80;;;;;;;;;;5072458;28;24505;-55
2021/07/19 06:21:33;;;;;;;9.00;8.10;;;;;;;;;;5079708;28;24426;-55
2021/07/19 06:23:58;;;;;;;9.17;8.37;;;;;;;;;;5083229;28;24498;-55
2021/07/19 06:26:24;;;;;;;8.70;8.00;;;;;;;;;;5074397;28;24425;-55
2021/07/19 06:28:49;;;;;;;8.70;7.90;;;;;;;;;;5068361;28;24425;-55
2021/07/19 06:31:14;;;;;;;9.40;8.40;;;;;;;;;;5077862;28;24467;-54
2021/07/19 06:33:39;;;;;;;10.05;9.05;;;;;;;;;;5083403;28;24445;-55
2021/07/19 06:36:04;;;;;;;9.80;8.80;;;;;;;;;;5084496;28;24436;-55
2021/07/19 06:38:30;;;;;;;11.03;10.03;;;;;;;;;;5071829;28;24427;-55
2021/07/19 06:40:55;;;;;;;9.00;8.13;;;;;;;;;;5075781;28;24527;-55
2021/07/19 06:43:20;;;;;;;10.80;9.90;;;;;;;;;;5087637;28;24483;-54
2021/07/19 06:45:47;;;;;;;10.10;9.20;;;;;;;;;;5097217;28;24986;-55
2021/07/19 06:48:12;;;;;;;9.73;8.85;;;;;;;;;;5091792;28;24471;-54
2021/07/19 06:50:37;;;;;;;10.20;9.23;;;;;;;;;;5091151;28;24777;-54
2021/07/19 06:53:03;;;;;;;10.40;9.40;;;;;;;;;;5083671;28;24964;-55
2021/07/19 06:55:28;;;;;;;10.17;9.17;;;;;;;;;;5091482;28;24929;-55
2021/07/19 06:57:53;;;;;;;10.95;9.95;;;;;;;;;;5092222;28;24514;-55
2021/07/19 07:00:18;;;;;;;10.30;9.50;;;;;;;;;;5093783;28;24426;-55
2021/07/19 07:02:43;;;;;;;11.40;10.30;;;;;;;;;;5101083;28;24815;-54
2021/07/19 07:05:09;;;;;;;13.30;10.65;;;;;;;;;;5107620;28;24425;-54
2021/07/19 07:07:34;;;;;;;11.60;10.40;;;;;;;;;;5092282;27;24491;-54
2021/07/19 07:09:59;;;;;;;13.60;10.85;;;;;;;;;;5096845;28;24528;-55
2021/07/19 07:12:24;;;;;;;10.93;9.82;;;;;;;;;;5086489;28;24415;-54
2021/07/19 07:14:50;;;;;;;11.03;9.80;;;;;;;;;;5070468;28;24395;-55
2021/07/19 07:17:15;;;;;;;11.03;9.93;;;;;;;;;;5070433;28;24438;-54
2021/07/19 07:19:40;;;;;;;10.70;9.60;;;;;;;;;;5070334;28;24969;-55
2021/07/19 07:22:05;;;;;;;11.38;10.23;;;;;;;;;;5070408;28;25282;-54
2021/07/19 07:24:30;;;;;;;10.30;9.30;;;;;;;;;;5070569;28;24980;-54
2021/07/19 07:26:56;;;;;;;9.90;8.90;;;;;;;;;;5070264;28;24383;-54
2021/07/19 07:29:21;;;;;;;9.80;8.70;;;;;;;;;;5070391;28;24383;-54
2021/07/19 07:31:46;;;;;;;9.43;8.48;;;;;;;;;;5089296;28;24454;-54
2021/07/19 07:34:11;;;;;;;11.33;9.07;;;;;;;;;;5090282;28;24512;-54
2021/07/19 07:36:37;;;;;;;9.30;8.10;;;;;;;;;;5090352;28;24527;-54
2021/07/19 07:39:03;;;;;;;8.43;7.53;;;;;;;;;;5090145;28;24418;-54
2021/07/19 07:41:29;;;;;;;9.70;8.10;;;;;;;;;;5088371;28;24568;-55
2021/07/19 07:43:55;;;;;;;10.18;7.70;;;;;;;;;;5090293;28;24995;-55
2021/07/19 07:46:20;;;;;;;8.52;7.10;;;;;;;;;;5090307;28;24574;-55
2021/07/19 07:48:45;;;;;;;10.50;7.50;;;;;;;;;;5089964;28;24532;-54
2021/07/19 07:51:10;;;;;;;9.93;7.72;;;;;;;;;;5088332;28;24454;-54
2021/07/19 07:53:36;;;;;;;8.90;8.00;;;;;;;;;;5089918;28;24398;-54
2021/07/19 07:56:02;;;;;;;8.53;7.00;;;;;;;;;;5090020;28;24404;-54
2021/07/19 07:58:28;;;;;;;12.15;7.60;;;;;;;;;;5090193;28;24413;-54
2021/07/19 08:00:53;;;;;;;9.07;7.03;;;;;;;;;;5088204;28;24995;-54
2021/07/19 08:03:19;;;;;;;9.53;7.20;;;;;;;;;;5089585;28;24791;-54
2021/07/19 08:05:44;;;;;;;10.65;7.78;;;;;;;;;;5089027;28;24391;-54
2021/07/19 08:08:09;;;;;;;11.70;7.47;;;;;;;;;;5090031;28;24439;-54
2021/07/19 08:10:34;;;;;;;10.67;7.40;;;;;;;;;;5089949;28;24437;-54
2021/07/19 08:12:59;;;;;;;8.63;7.40;;;;;;;;;;5087478;28;24788;-54
2021/07/19 08:15:25;;;;;;;7.83;6.03;;;;;;;;;;5089943;28;24451;-54
2021/07/19 08:17:50;;;;;;;9.77;6.10;;;;;;;;;;5089417;28;24421;-53
2021/07/19 08:20:17;;;;;;;8.77;5.70;;;;;;;;;;5089989;28;24440;-54
2021/07/19 08:22:42;;;;;;;6.32;5.18;;;;;;;;;;5087758;28;24418;-54
2021/07/19 08:25:08;;;;;;;9.07;5.70;;;;;;;;;;5089668;28;24529;-54
2021/07/19 08:27:34;;;;;;;7.43;5.50;;;;;;;;;;5090093;28;24409;-54
2021/07/19 08:29:59;;;;;;;9.25;5.40;;;;;;;;;;5089530;28;24397;-54
2021/07/19 08:32:24;;;;;;;5.90;4.90;;;;;;;;;;5087391;28;24398;-54
2021/07/19 08:34:49;;;;;;;5.82;4.40;;;;;;;;;;5089363;28;24406;-54
2021/07/19 08:37:15;;;;;;;6.83;4.50;;;;;;;;;;5089773;28;24394;-54
2021/07/19 08:39:41;;;;;;;5.65;4.65;;;;;;;;;;5089389;28;24924;-54
2021/07/19 08:42:09;;;;;;;7.80;5.00;;;;;;;;;;5089132;28;24398;-54
2021/07/19 08:44:35;;;;;;;7.28;5.30;;;;;;;;;;5087202;28;24493;-54
2021/07/19 08:47:00;;;;;;;7.20;5.10;;;;;;;;;;5089090;28;24477;-54
2021/07/19 08:49:25;;;;;;;8.37;5.37;;;;;;;;;;5089238;28;24407;-54
2021/07/19 08:51:50;;;;;;;6.03;4.87;;;;;;;;;;5088768;28;24393;-54
2021/07/19 08:54:15;;;;;;;5.70;4.60;;;;;;;;;;5086997;28;24472;-55
2021/07/19 08:56:41;;;;;;;5.00;4.33;;;;;;;;;;5089394;28;24421;-54
2021/07/19 08:59:06;;;;;;;5.90;5.00;;;;;;;;;;5088915;28;24962;-54
2021/07/19 09:01:33;;;;;;;6.53;4.60;;;;;;;;;;5088770;28;25002;-54
2021/07/19 09:03:58;;;;;;;6.97;6.20;;;;;;;;;;5087074;28;24421;-54
2021/07/19 09:06:23;;;;;;;5.80;4.80;;;;;;;;;;5089188;28;24851;-54
2021/07/19 09:08:49;;;;;;;6.63;5.63;;;;;;;;;;5088929;28;24489;-55
2021/07/19 09:11:15;;;;;;;5.70;5.13;;;;;;;;;;5088853;28;24939;-54
2021/07/19 09:13:55;;;;;;;6.38;5.60;;;;;;;;;;5086615;28;24418;-55
2021/07/19 09:16:20;;;;;;;6.22;5.63;;;;;;;;;;5088389;28;25000;-55
2021/07/19 09:18:45;;;;;;;6.50;5.07;;;;;;;;;;5088412;28;24464;-54
2021/07/19 09:21:28;;;;;;;7.57;6.40;;;;;;;;;;5089002;28;24394;-55
2021/07/19 09:24:00;;;;;;;6.93;6.18;;;;;;;;;;5086394;28;24414;-54
2021/07/19 09:26:29;;;;;;;7.22;6.53;;;;;;;;;;5088967;28;24506;-55
2021/07/19 09:28:58;;;;;;;7.00;6.30;;;;;;;;;;5088390;28;24478;-55
2021/07/19 09:31:30;;;;;;;6.90;6.20;;;;;;;;;;5088592;28;24398;-55
2021/07/19 09:33:56;;;;;;;7.18;6.00;;;;;;;;;;5086142;28;25060;-55
2021/07/19 09:36:24;;;;;;;7.00;6.30;;;;;;;;;;5088510;28;24465;-55
2021/07/19 09:39:01;;;;;;;7.68;6.13;;;;;;;;;;5088155;28;25080;-54
2021/07/19 09:41:27;;;;;;;7.90;7.10;;;;;;;;;;5088414;28;24406;-55
2021/07/19 09:43:52;;;;;;;7.25;6.55;;;;;;;;;;5087636;28;24390;-55
2021/07/19 09:46:17;;;;;;;6.80;6.10;;;;;;;;;;5085871;28;24475;-55
2021/07/19 09:48:42;;;;;;;7.07;6.35;;;;;;;;;;5088448;28;24444;-55
2021/07/19 09:51:07;;;;;;;7.07;6.38;;;;;;;;;;5088247;28;24745;-55
2021/07/19 09:53:35;;;;;;;7.23;6.63;;;;;;;;;;5087758;28;24385;-55
2021/07/19 09:56:12;;;;;;;7.22;6.63;;;;;;;;;;5086328;28;24493;-55
2021/07/19 09:58:38;;;;;;;7.47;6.80;;;;;;;;;;5087982;28;24414;-55
2021/07/19 10:01:03;;;;;;;7.60;6.90;;;;;;;;;;5087669;28;24401;-55
2021/07/19 10:03:30;;;;;;;7.00;6.40;;;;;;;;;;5087997;28;24390;-55
2021/07/19 10:06:03;;;;;;;7.55;6.82;;;;;;;;;;5085736;28;24425;-55
2021/07/19 10:08:28;;;;;;;8.15;7.35;;;;;;;;;;5086900;28;24407;-56
2021/07/19 10:10:53;;;;;;;7.30;6.60;;;;;;;;;;5067742;28;24486;-55
2021/07/19 10:13:18;;;;;;;8.10;7.03;;;;;;;;;;5067274;28;24406;-55
2021/07/19 10:15:44;;;;;;;7.90;7.10;;;;;;;;;;5067513;28;24398;-56
2021/07/19 10:18:11;;;;;;;9.20;7.20;;;;;;;;;;5068446;28;24991;-55
2021/07/19 10:20:40;;;;;;;7.07;6.45;;;;;;;;;;5067431;28;24960;-56
2021/07/19 10:23:06;;;;;;;6.90;6.20;;;;;;;;;;5067084;28;24418;-55
2021/07/19 10:25:34;;;;;;;8.00;7.20;;;;;;;;;;5067453;28;24394;-55
2021/07/19 10:27:59;;;;;;;7.22;6.15;;;;;;;;;;5066692;28;24820;-56
2021/07/19 10:30:24;;;;;;;7.82;6.75;;;;;;;;;;5078790;28;24493;-55
2021/07/19 10:32:49;;;;;;;7.07;6.38;;;;;;;;;;5085301;28;24398;-56
2021/07/19 10:35:15;;;;;;;7.40;6.70;;;;;;;;;;5087638;28;24386;-56
2021/07/19 10:37:55;;;;;;;9.03;7.20;;;;;;;;;;5087026;28;24475;-56
2021/07/19 10:40:31;;;;;;;7.60;6.90;;;;;;;;;;5087460;28;24557;-56
2021/07/19 10:43:03;;;;;;;10.60;7.03;;;;;;;;;;5087250;28;24443;-56
2021/07/19 10:45:37;;;;;;;8.30;7.50;;;;;;;;;;5085643;28;24497;-55
2021/07/19 10:48:02;;;;;;;9.27;7.75;;;;;;;;;;5087211;28;24499;-56
2021/07/19 10:50:27;;;;;;;8.00;7.20;;;;;;;;;;5087536;28;24426;-55
2021/07/19 10:52:56;;;;;;;9.30;8.40;;;;;;;;;;5086995;28;24385;-55
2021/07/19 10:55:28;;;;;;;9.20;8.40;;;;;;;;;;5085286;28;24797;-55
2021/07/19 10:58:07;;;;;;;8.70;7.90;;;;;;;;;;5087109;28;24480;-56
2021/07/19 11:00:36;;;;;;;7.50;6.80;;;;;;;;;;5087136;28;24511;-56
2021/07/19 11:03:02;;;;;;;8.88;7.30;;;;;;;;;;5086862;28;24401;-56
2021/07/19 11:05:32;;;;;;;7.25;6.65;;;;;;;;;;5085623;28;24418;-55
2021/07/19 11:07:57;;;;;;;7.50;6.90;;;;;;;;;;5087327;28;24493;-56
2021/07/19 11:10:22;;;;;;;7.30;6.70;;;;;;;;;;5087051;28;24398;-55
2021/07/19 11:12:51;;;;;;;7.75;7.15;;;;;;;;;;5087063;28;24417;-56
2021/07/19 11:15:18;;;;;;;7.70;7.10;;;;;;;;;;5085019;28;24429;-56
2021/07/19 11:17:43;;;;;;;7.38;6.78;;;;;;;;;;5086848;28;24976;-54
2021/07/19 11:20:13;;;;;;;7.93;7.13;;;;;;;;;;5087138;28;24908;-54
2021/07/19 11:22:38;;;;;;;7.43;6.70;;;;;;;;;;5087073;28;24382;-54
2021/07/19 11:25:22;;;;;;;7.40;6.80;;;;;;;;;;5086589;28;24786;-55
2021/07/19 11:27:48;;;;;;;8.35;6.22;;;;;;;;;;5085200;28;24410;-55
2021/07/19 11:30:22;;;;;;;7.50;6.70;;;;;;;;;;5083665;28;24500;-55
2021/07/19 11:32:47;;;;;;;7.10;6.50;;;;;;;;;;5066690;28;24390;-54
2021/07/19 11:35:17;;;;;;;6.50;5.80;;;;;;;;;;5066985;28;24468;-54
2021/07/19 11:37:44;;;;;;;6.60;6.00;;;;;;;;;;5079500;28;24403;-55
2021/07/19 11:40:10;;;;;;;7.07;6.38;;;;;;;;;;5088207;28;24974;-54
2021/07/19 11:42:41;;;;;;;8.50;6.32;;;;;;;;;;5090575;28;24390;-54
2021/07/19 11:45:16;;;;;;;6.90;6.30;;;;;;;;;;5090644;28;24425;-55
2021/07/19 11:47:43;;;;;;;6.82;6.15;;;;;;;;;;5087395;28;24418;-55
2021/07/19 11:50:09;;;;;;;6.93;6.32;;;;;;;;;;5090146;28;24928;-55
2021/07/19 11:52:34;;;;;;;6.90;6.20;;;;;;;;;;5090259;28;24440;-55
2021/07/19 11:55:00;;;;;;;6.10;5.60;;;;;;;;;;5089681;28;24398;-55
2021/07/19 11:57:25;;;;;;;7.70;6.40;;;;;;;;;;5088237;28;24415;-55
2021/07/19 11:59:50;;;;;;;6.87;6.27;;;;;;;;;;5089917;28;24506;-55
2021/07/19 12:02:25;;;;;;;6.80;6.20;;;;;;;;;;5090023;28;24448;-55
2021/07/19 12:04:50;;;;;;;6.20;5.60;;;;;;;;;;5089834;28;25240;-55
2021/07/19 12:07:15;;;;;;;6.72;6.13;;;;;;;;;;5089815;28;24404;-54
2021/07/19 12:09:40;;;;;;;6.60;5.90;;;;;;;;;;5088264;28;24765;-54
2021/07/19 12:12:05;;;;;;;6.10;5.50;;;;;;;;;;5089897;28;24505;-55
2021/07/19 12:14:31;;;;;;;6.50;5.90;;;;;;;;;;5089714;28;24477;-54
2021/07/19 12:16:56;;;;;;;8.47;6.77;;;;;;;;;;5089530;28;24931;-55
2021/07/19 12:19:21;;;;;;;7.13;6.43;;;;;;;;;;5087932;28;24468;-55
2021/07/19 12:21:51;;;;;;;6.17;5.57;;;;;;;;;;5089420;28;24502;-55
2021/07/19 12:24:17;;;;;;;9.13;6.40;;;;;;;;;;5089140;28;24394;-54
2021/07/19 12:26:47;;;;;;;6.65;5.82;;;;;;;;;;5089852;28;25004;-54
2021/07/19 12:29:14;;;;;;;6.00;5.50;;;;;;;;;;5087364;28;24600;-55
2021/07/19 12:31:44;;;;;;;6.10;5.60;;;;;;;;;;5089510;28;24447;-54
2021/07/19 12:34:11;;;;;;;6.90;5.90;;;;;;;;;;5088750;28;25043;-54
2021/07/19 12:36:36;;;;;;;6.60;6.00;;;;;;;;;;5089583;28;24411;-54
2021/07/19 12:39:03;;;;;;;6.35;5.70;;;;;;;;;;5089601;28;24413;-55
2021/07/19 12:41:28;;;;;;;5.70;5.20;;;;;;;;;;5087803;28;24418;-54
2021/07/19 12:43:53;;;;;;;6.53;5.93;;;;;;;;;;5089112;28;24390;-54
2021/07/19 12:46:18;;;;;;;5.80;5.30;;;;;;;;;;5089082;28;24418;-54
2021/07/19 12:48:45;;;;;;;7.00;6.03;;;;;;;;;;5089592;28;24387;-54
2021/07/19 12:51:10;;;;;;;7.80;6.20;;;;;;;;;;5086695;28;24406;-55
2021/07/19 12:53:35;;;;;;;6.40;5.80;;;;;;;;;;5088948;28;25225;-55
2021/07/19 12:56:11;;;;;;;7.13;5.50;;;;;;;;;;5089480;28;24391;-54
2021/07/19 12:58:37;;;;;;;6.50;5.90;;;;;;;;;;5089181;28;24987;-55
2021/07/19 13:01:09;;;;;;;6.47;5.78;;;;;;;;;;5086749;28;25016;-55
2021/07/19 13:03:34;;;;;;;6.68;5.90;;;;;;;;;;5086821;28;24749;-55
2021/07/19 13:05:59;;;;;;;7.30;6.30;;;;;;;;;;5068750;28;24387;-55
2021/07/19 13:08:28;;;;;;;6.90;6.20;;;;;;;;;;5068506;28;24438;-55
2021/07/19 13:10:53;;;;;;;7.82;6.40;;;;;;;;;;5068250;28;24474;-55
2021/07/19 13:13:22;;;;;;;6.60;6.00;;;;;;;;;;5087625;28;24562;-55
2021/07/19 13:15:57;;;;;;;8.17;6.50;;;;;;;;;;5088887;28;24487;-55
2021/07/19 13:18:22;;;;;;;7.00;6.30;;;;;;;;;;5088285;28;24434;-55
2021/07/19 13:20:47;;;;;;;7.20;6.50;;;;;;;;;;5088858;28;24477;-54
2021/07/19 13:23:14;;;;;;;8.00;6.97;;;;;;;;;;5086864;28;24422;-54
2021/07/19 13:25:41;;;;;;;7.27;6.33;;;;;;;;;;5088709;28;24501;-54
2021/07/19 13:28:06;;;;;;;7.97;5.70;;;;;;;;;;5088374;28;24378;-54
2021/07/19 13:30:32;;;;;;;6.30;5.70;;;;;;;;;;5088572;28;24405;-54
2021/07/19 13:32:59;;;;;;;6.60;5.90;;;;;;;;;;5085385;28;24436;-54
2021/07/19 13:35:34;;;;;;;7.13;6.07;;;;;;;;;;5088616;28;24440;-54
2021/07/19 13:38:00;;;;;;;6.50;5.70;;;;;;;;;;5088469;28;25014;-54
2021/07/19 13:40:25;;;;;;;7.33;6.60;;;;;;;;;;5086098;28;24469;-54
2021/07/19 13:42:52;;;;;;;6.97;6.28;;;;;;;;;;5067785;28;24842;-54
2021/07/19 13:45:18;;;;;;;7.07;5.95;;;;;;;;;;5067737;28;24390;-54
2021/07/19 13:47:44;;;;;;;6.35;5.65;;;;;;;;;;5068178;28;24379;-54
2021/07/19 13:50:09;;;;;;;6.30;5.70;;;;;;;;;;5083191;28;24496;-55
2021/07/19 13:52:34;;;;;;;6.63;6.03;;;;;;;;;;5077474;28;24471;-55
2021/07/19 13:55:00;;;;;;;6.93;6.17;;;;;;;;;;5088134;28;24449;-55
2021/07/19 13:57:25;;;;;;;6.85;6.00;;;;;;;;;;5067846;28;24490;-55
2021/07/19 13:59:50;;;;;;;7.22;6.50;;;;;;;;;;5067411;28;24466;-55
2021/07/19 14:02:15;;;;;;;8.10;6.13;;;;;;;;;;5075742;28;24425;-56
2021/07/19 14:04:40;;;;;;;6.40;5.90;;;;;;;;;;5088040;28;24928;-55
2021/07/19 14:07:05;;;;;;;6.25;5.70;;;;;;;;;;5087924;28;24394;-55
2021/07/19 14:09:31;;;;;;;6.63;6.03;;;;;;;;;;5071940;28;24816;-55
2021/07/19 14:11:56;;;;;;;7.97;6.60;;;;;;;;;;5067967;28;26817;-54
2021/07/19 14:14:21;;;;;;;6.97;6.37;;;;;;;;;;5069264;28;24849;-54
2021/07/19 14:16:47;;;;;;;7.93;6.53;;;;;;;;;;5069431;28;24868;-54
2021/07/19 14:19:12;;;;;;;6.80;6.20;;;;;;;;;;5066977;28;24438;-54
2021/07/19 14:21:37;;;;;;;8.50;6.40;;;;;;;;;;5071857;28;24496;-54
2021/07/19 14:24:03;;;;;;;6.53;5.93;;;;;;;;;;5087587;28;24428;-54
2021/07/19 14:26:29;;;;;;;7.37;6.30;;;;;;;;;;5081048;28;24430;-54
2021/07/19 14:28:54;;;;;;;7.55;6.65;;;;;;;;;;5067124;28;24499;-55
2021/07/19 14:31:19;;;;;;;6.95;6.25;;;;;;;;;;5068038;28;24977;-54
2021/07/19 14:33:45;;;;;;;7.60;6.80;;;;;;;;;;5067328;28;24394;-54
2021/07/19 14:36:10;;;;;;;7.00;6.30;;;;;;;;;;5071271;28;24902;-53